sensor_id;sensor_type;location;lat;lon;timestamp;temperature;humidity
47382;DHT22;33128;51.580;5.170;2022-07-23T00:01:53;16.00;99.90
47382;DHT22;33128;51.580;5.170;2022-07-23T00:04:19;15.90;99.90
47382;DHT22;33128;51.580;5.170;2022-07-23T00:06:44;15.70;99.90
47382;DHT22;33128;51.580;5.170;2022-07-23T00:09:10;15.80;99.90
47382;DHT22;33128;51.580;5.170;2022-07-23T00:11:35;15.60;99.90
47382;DHT22;33128;51.580;5.170;2022-07-23T00:14:01;15.70;99.90
47382;DHT22;33128;51.580;5.170;2022-07-23T00:16:26;15.70;99.90
47382;DHT22;33128;51.580;5.170;2022-07-23T00:18:52;15.70;99.90
47382;DHT22;33128;51.580;5.170;2022-07-23T00:21:17;15.50;99.90
47382;DHT22;33128;51.580;5.170;2022-07-23T00:23:43;15.30;99.90
47382;DHT22;33128;51.580;5.170;2022-07-23T00:26:08;15.30;99.90
47382;DHT22;33128;51.580;5.170;2022-07-23T00:28:34;15.50;99.90
47382;DHT22;33128;51.580;5.170;2022-07-23T00:30:59;15.50;99.90
47382;DHT22;33128;51.580;5.170;2022-07-23T00:33:25;15.50;99.90
47382;DHT22;33128;51.580;5.170;2022-07-23T00:35:50;15.40;99.90
47382;DHT22;33128;51.580;5.170;2022-07-23T00:38:16;15.40;99.90
47382;DHT22;33128;51.580;5.170;2022-07-23T00:40:41;15.30;99.90
47382;DHT22;33128;51.580;5.170;2022-07-23T00:43:07;15.20;99.90
47382;DHT22;33128;51.580;5.170;2022-07-23T00:45:32;15.10;99.90
47382;DHT22;33128;51.580;5.170;2022-07-23T00:47:58;15.00;99.90
47382;DHT22;33128;51.580;5.170;2022-07-23T00:50:24;15.10;99.90
47382;DHT22;33128;51.580;5.170;2022-07-23T00:52:49;15.10;99.90
47382;DHT22;33128;51.580;5.170;2022-07-23T00:55:15;15.00;99.90
47382;DHT22;33128;51.580;5.170;2022-07-23T00:57:44;15.00;99.90
47382;DHT22;33128;51.580;5.170;2022-07-23T01:00:10;15.10;99.90
47382;DHT22;33128;51.580;5.170;2022-07-23T01:02:36;15.00;99.90
47382;DHT22;33128;51.580;5.170;2022-07-23T01:05:02;15.00;99.90
47382;DHT22;33128;51.580;5.170;2022-07-23T01:07:28;14.90;99.90
47382;DHT22;33128;51.580;5.170;2022-07-23T01:09:54;14.90;99.90
47382;DHT22;33128;51.580;5.170;2022-07-23T01:12:19;14.90;99.90
47382;DHT22;33128;51.580;5.170;2022-07-23T01:14:53;14.90;99.90
47382;DHT22;33128;51.580;5.170;2022-07-23T01:17:19;14.90;99.90
47382;DHT22;33128;51.580;5.170;2022-07-23T01:19:44;14.80;99.90
47382;DHT22;33128;51.580;5.170;2022-07-23T01:22:10;14.80;99.90
47382;DHT22;33128;51.580;5.170;2022-07-23T01:24:35;14.80;99.90
47382;DHT22;33128;51.580;5.170;2022-07-23T01:27:01;14.90;99.90
47382;DHT22;33128;51.580;5.170;2022-07-23T01:29:26;14.90;99.90
47382;DHT22;33128;51.580;5.170;2022-07-23T01:31:52;14.80;99.90
47382;DHT22;33128;51.580;5.170;2022-07-23T01:34:17;14.70;99.90
47382;DHT22;33128;51.580;5.170;2022-07-23T01:36:43;14.50;99.90
47382;DHT22;33128;51.580;5.170;2022-07-23T01:39:08;14.60;99.90
47382;DHT22;33128;51.580;5.170;2022-07-23T01:41:34;14.70;99.90
47382;DHT22;33128;51.580;5.170;2022-07-23T01:44:00;14.80;99.90
47382;DHT22;33128;51.580;5.170;2022-07-23T01:46:25;14.70;99.90
47382;DHT22;33128;51.580;5.170;2022-07-23T01:48:51;14.70;99.90
47382;DHT22;33128;51.580;5.170;2022-07-23T01:51:17;14.70;99.90
47382;DHT22;33128;51.580;5.170;2022-07-23T01:53:42;14.60;99.90
47382;DHT22;33128;51.580;5.170;2022-07-23T01:56:07;14.50;99.90
47382;DHT22;33128;51.580;5.170;2022-07-23T01:58:33;14.40;99.90
47382;DHT22;33128;51.580;5.170;2022-07-23T02:00:58;14.40;99.90
47382;DHT22;33128;51.580;5.170;2022-07-23T02:03:24;14.40;99.90
47382;DHT22;33128;51.580;5.170;2022-07-23T02:05:50;14.50;99.90
47382;DHT22;33128;51.580;5.170;2022-07-23T02:08:15;14.40;99.90
47382;DHT22;33128;51.580;5.170;2022-07-23T02:10:41;14.40;99.90
47382;DHT22;33128;51.580;5.170;2022-07-23T02:13:06;14.30;99.90
47382;DHT22;33128;51.580;5.170;2022-07-23T02:15:32;14.30;99.90
47382;DHT22;33128;51.580;5.170;2022-07-23T02:17:58;14.40;99.90
47382;DHT22;33128;51.580;5.170;2022-07-23T02:20:23;14.30;99.90
47382;DHT22;33128;51.580;5.170;2022-07-23T02:22:49;14.00;99.90
47382;DHT22;33128;51.580;5.170;2022-07-23T02:25:14;14.10;99.90
47382;DHT22;33128;51.580;5.170;2022-07-23T02:27:40;14.00;99.90
47382;DHT22;33128;51.580;5.170;2022-07-23T02:30:06;14.10;99.90
47382;DHT22;33128;51.580;5.170;2022-07-23T02:32:31;13.90;99.90
47382;DHT22;33128;51.580;5.170;2022-07-23T02:34:57;13.90;99.90
47382;DHT22;33128;51.580;5.170;2022-07-23T02:37:22;13.80;99.90
47382;DHT22;33128;51.580;5.170;2022-07-23T02:39:48;13.80;99.90
47382;DHT22;33128;51.580;5.170;2022-07-23T02:42:14;13.80;99.90
47382;DHT22;33128;51.580;5.170;2022-07-23T02:44:39;13.90;99.90
47382;DHT22;33128;51.580;5.170;2022-07-23T02:47:05;14.00;99.90
47382;DHT22;33128;51.580;5.170;2022-07-23T02:49:31;13.90;99.90
47382;DHT22;33128;51.580;5.170;2022-07-23T02:51:56;13.90;99.90
47382;DHT22;33128;51.580;5.170;2022-07-23T02:54:22;13.80;99.90
47382;DHT22;33128;51.580;5.170;2022-07-23T02:56:47;13.80;99.90
47382;DHT22;33128;51.580;5.170;2022-07-23T02:59:13;13.80;99.90
47382;DHT22;33128;51.580;5.170;2022-07-23T03:01:38;13.70;99.90
47382;DHT22;33128;51.580;5.170;2022-07-23T03:04:04;13.70;99.90
47382;DHT22;33128;51.580;5.170;2022-07-23T03:06:29;13.80;99.90
47382;DHT22;33128;51.580;5.170;2022-07-23T03:08:55;13.80;99.90
47382;DHT22;33128;51.580;5.170;2022-07-23T03:11:20;13.80;99.90
47382;DHT22;33128;51.580;5.170;2022-07-23T03:13:46;13.80;99.90
47382;DHT22;33128;51.580;5.170;2022-07-23T03:16:11;13.70;99.90
47382;DHT22;33128;51.580;5.170;2022-07-23T03:18:37;13.60;99.90
47382;DHT22;33128;51.580;5.170;2022-07-23T03:21:02;13.70;99.90
47382;DHT22;33128;51.580;5.170;2022-07-23T03:23:28;13.70;99.90
47382;DHT22;33128;51.580;5.170;2022-07-23T03:25:53;13.70;99.90
47382;DHT22;33128;51.580;5.170;2022-07-23T03:28:19;13.60;99.90
47382;DHT22;33128;51.580;5.170;2022-07-23T03:30:45;13.50;99.90
47382;DHT22;33128;51.580;5.170;2022-07-23T03:33:12;13.50;99.90
47382;DHT22;33128;51.580;5.170;2022-07-23T03:35:37;13.60;99.90
47382;DHT22;33128;51.580;5.170;2022-07-23T03:38:03;13.40;99.90
47382;DHT22;33128;51.580;5.170;2022-07-23T03:40:28;13.40;99.90
47382;DHT22;33128;51.580;5.170;2022-07-23T03:42:54;13.50;99.90
47382;DHT22;33128;51.580;5.170;2022-07-23T03:45:19;13.50;99.90
47382;DHT22;33128;51.580;5.170;2022-07-23T03:47:45;13.50;99.90
47382;DHT22;33128;51.580;5.170;2022-07-23T03:50:10;13.50;99.90
47382;DHT22;33128;51.580;5.170;2022-07-23T03:52:36;13.50;99.90
47382;DHT22;33128;51.580;5.170;2022-07-23T03:55:02;13.40;99.90
47382;DHT22;33128;51.580;5.170;2022-07-23T03:57:27;13.40;99.90
47382;DHT22;33128;51.580;5.170;2022-07-23T03:59:53;13.40;99.90
47382;DHT22;33128;51.580;5.170;2022-07-23T04:02:18;13.40;99.90
47382;DHT22;33128;51.580;5.170;2022-07-23T04:04:43;13.40;99.90
47382;DHT22;33128;51.580;5.170;2022-07-23T04:07:09;13.30;99.90
47382;DHT22;33128;51.580;5.170;2022-07-23T04:09:34;13.30;99.90
47382;DHT22;33128;51.580;5.170;2022-07-23T04:12:00;13.30;99.90
47382;DHT22;33128;51.580;5.170;2022-07-23T04:14:29;13.20;99.90
47382;DHT22;33128;51.580;5.170;2022-07-23T04:16:54;13.30;99.90
47382;DHT22;33128;51.580;5.170;2022-07-23T04:19:20;13.30;99.90
47382;DHT22;33128;51.580;5.170;2022-07-23T04:21:45;13.10;99.90
47382;DHT22;33128;51.580;5.170;2022-07-23T04:24:11;13.10;99.90
47382;DHT22;33128;51.580;5.170;2022-07-23T04:26:36;13.20;99.90
47382;DHT22;33128;51.580;5.170;2022-07-23T04:29:02;13.30;99.90
47382;DHT22;33128;51.580;5.170;2022-07-23T04:31:27;13.30;99.90
47382;DHT22;33128;51.580;5.170;2022-07-23T04:33:53;13.30;99.90
47382;DHT22;33128;51.580;5.170;2022-07-23T04:36:18;13.30;99.90
47382;DHT22;33128;51.580;5.170;2022-07-23T04:38:44;13.30;99.90
47382;DHT22;33128;51.580;5.170;2022-07-23T04:41:09;13.50;99.90
47382;DHT22;33128;51.580;5.170;2022-07-23T04:43:35;13.50;99.90
47382;DHT22;33128;51.580;5.170;2022-07-23T04:46:00;13.40;99.90
47382;DHT22;33128;51.580;5.170;2022-07-23T04:48:26;13.40;99.90
47382;DHT22;33128;51.580;5.170;2022-07-23T04:50:51;13.50;99.90
47382;DHT22;33128;51.580;5.170;2022-07-23T04:53:17;13.50;99.90
47382;DHT22;33128;51.580;5.170;2022-07-23T04:55:43;13.60;99.90
47382;DHT22;33128;51.580;5.170;2022-07-23T04:58:09;13.60;99.90
47382;DHT22;33128;51.580;5.170;2022-07-23T05:00:34;13.60;99.90
47382;DHT22;33128;51.580;5.170;2022-07-23T05:03:00;13.60;99.90
47382;DHT22;33128;51.580;5.170;2022-07-23T05:05:25;13.70;99.90
47382;DHT22;33128;51.580;5.170;2022-07-23T05:07:51;13.70;99.90
47382;DHT22;33128;51.580;5.170;2022-07-23T05:10:16;13.60;99.90
47382;DHT22;33128;51.580;5.170;2022-07-23T05:12:42;13.80;99.90
47382;DHT22;33128;51.580;5.170;2022-07-23T05:15:07;13.80;99.90
47382;DHT22;33128;51.580;5.170;2022-07-23T05:17:33;13.90;99.90
47382;DHT22;33128;51.580;5.170;2022-07-23T05:19:58;13.90;99.90
47382;DHT22;33128;51.580;5.170;2022-07-23T05:22:24;14.00;99.90
47382;DHT22;33128;51.580;5.170;2022-07-23T05:24:49;14.00;99.90
47382;DHT22;33128;51.580;5.170;2022-07-23T05:27:15;14.10;99.90
47382;DHT22;33128;51.580;5.170;2022-07-23T05:29:40;14.10;99.90
47382;DHT22;33128;51.580;5.170;2022-07-23T05:32:06;14.00;99.90
47382;DHT22;33128;51.580;5.170;2022-07-23T05:34:31;14.20;99.90
47382;DHT22;33128;51.580;5.170;2022-07-23T05:36:56;14.20;99.90
47382;DHT22;33128;51.580;5.170;2022-07-23T05:39:22;14.30;99.90
47382;DHT22;33128;51.580;5.170;2022-07-23T05:41:47;14.40;99.90
47382;DHT22;33128;51.580;5.170;2022-07-23T05:44:13;14.40;99.90
47382;DHT22;33128;51.580;5.170;2022-07-23T05:46:38;14.50;99.90
47382;DHT22;33128;51.580;5.170;2022-07-23T05:49:04;14.60;99.90
47382;DHT22;33128;51.580;5.170;2022-07-23T05:51:29;14.60;99.90
47382;DHT22;33128;51.580;5.170;2022-07-23T05:53:55;14.80;99.90
47382;DHT22;33128;51.580;5.170;2022-07-23T05:56:21;14.80;99.90
47382;DHT22;33128;51.580;5.170;2022-07-23T05:58:48;14.80;99.90
47382;DHT22;33128;51.580;5.170;2022-07-23T06:01:14;14.80;99.90
47382;DHT22;33128;51.580;5.170;2022-07-23T06:03:39;14.90;99.90
47382;DHT22;33128;51.580;5.170;2022-07-23T06:06:05;15.00;99.90
47382;DHT22;33128;51.580;5.170;2022-07-23T06:08:31;15.20;99.90
47382;DHT22;33128;51.580;5.170;2022-07-23T06:10:57;16.10;99.90
47382;DHT22;33128;51.580;5.170;2022-07-23T06:13:22;16.90;99.90
47382;DHT22;33128;51.580;5.170;2022-07-23T06:15:48;17.00;99.90
47382;DHT22;33128;51.580;5.170;2022-07-23T06:18:13;17.20;99.90
47382;DHT22;33128;51.580;5.170;2022-07-23T06:20:39;17.10;99.90
47382;DHT22;33128;51.580;5.170;2022-07-23T06:23:04;17.10;99.90
47382;DHT22;33128;51.580;5.170;2022-07-23T06:25:30;17.60;99.90
47382;DHT22;33128;51.580;5.170;2022-07-23T06:27:55;16.90;99.90
47382;DHT22;33128;51.580;5.170;2022-07-23T06:30:21;16.40;99.90
47382;DHT22;33128;51.580;5.170;2022-07-23T06:32:47;16.10;99.90
47382;DHT22;33128;51.580;5.170;2022-07-23T06:35:12;16.10;99.90
47382;DHT22;33128;51.580;5.170;2022-07-23T06:37:38;16.00;99.90
47382;DHT22;33128;51.580;5.170;2022-07-23T06:40:03;16.20;99.90
47382;DHT22;33128;51.580;5.170;2022-07-23T06:42:29;16.20;99.90
47382;DHT22;33128;51.580;5.170;2022-07-23T06:44:54;16.30;99.90
47382;DHT22;33128;51.580;5.170;2022-07-23T06:47:20;16.40;99.90
47382;DHT22;33128;51.580;5.170;2022-07-23T06:49:45;16.50;99.90
47382;DHT22;33128;51.580;5.170;2022-07-23T06:52:11;16.70;99.90
47382;DHT22;33128;51.580;5.170;2022-07-23T06:54:36;16.80;99.90
47382;DHT22;33128;51.580;5.170;2022-07-23T06:57:02;16.70;99.90
47382;DHT22;33128;51.580;5.170;2022-07-23T06:59:27;16.80;99.90
47382;DHT22;33128;51.580;5.170;2022-07-23T07:01:53;17.00;99.90
47382;DHT22;33128;51.580;5.170;2022-07-23T07:04:18;17.00;99.90
47382;DHT22;33128;51.580;5.170;2022-07-23T07:06:44;17.10;99.90
47382;DHT22;33128;51.580;5.170;2022-07-23T07:09:09;17.20;99.90
47382;DHT22;33128;51.580;5.170;2022-07-23T07:11:35;17.20;99.90
47382;DHT22;33128;51.580;5.170;2022-07-23T07:14:00;17.30;99.90
47382;DHT22;33128;51.580;5.170;2022-07-23T07:16:26;17.40;99.90
47382;DHT22;33128;51.580;5.170;2022-07-23T07:18:51;17.40;99.90
47382;DHT22;33128;51.580;5.170;2022-07-23T07:21:17;17.50;99.90
47382;DHT22;33128;51.580;5.170;2022-07-23T07:23:42;17.70;99.90
47382;DHT22;33128;51.580;5.170;2022-07-23T07:26:08;17.80;99.90
47382;DHT22;33128;51.580;5.170;2022-07-23T07:28:33;17.90;99.90
47382;DHT22;33128;51.580;5.170;2022-07-23T07:31:01;18.00;99.90
47382;DHT22;33128;51.580;5.170;2022-07-23T07:33:26;17.90;99.90
47382;DHT22;33128;51.580;5.170;2022-07-23T07:35:52;18.20;99.90
47382;DHT22;33128;51.580;5.170;2022-07-23T07:38:17;18.50;99.90
47382;DHT22;33128;51.580;5.170;2022-07-23T07:40:43;18.90;99.90
47382;DHT22;33128;51.580;5.170;2022-07-23T07:43:09;19.10;99.90
47382;DHT22;33128;51.580;5.170;2022-07-23T07:45:34;19.30;99.90
47382;DHT22;33128;51.580;5.170;2022-07-23T07:47:59;19.50;99.90
47382;DHT22;33128;51.580;5.170;2022-07-23T07:50:25;19.50;99.90
47382;DHT22;33128;51.580;5.170;2022-07-23T07:52:50;19.60;99.90
47382;DHT22;33128;51.580;5.170;2022-07-23T07:55:16;19.80;99.90
47382;DHT22;33128;51.580;5.170;2022-07-23T07:57:42;19.80;99.90
47382;DHT22;33128;51.580;5.170;2022-07-23T08:00:08;19.80;99.90
47382;DHT22;33128;51.580;5.170;2022-07-23T08:02:41;19.70;99.90
47382;DHT22;33128;51.580;5.170;2022-07-23T08:05:06;19.30;99.90
47382;DHT22;33128;51.580;5.170;2022-07-23T08:07:32;19.30;99.90
47382;DHT22;33128;51.580;5.170;2022-07-23T08:09:57;19.10;99.90
47382;DHT22;33128;51.580;5.170;2022-07-23T08:12:23;19.00;99.90
47382;DHT22;33128;51.580;5.170;2022-07-23T08:14:48;19.20;99.90
47382;DHT22;33128;51.580;5.170;2022-07-23T08:17:14;19.30;99.90
47382;DHT22;33128;51.580;5.170;2022-07-23T08:19:39;19.50;99.90
47382;DHT22;33128;51.580;5.170;2022-07-23T08:22:05;19.60;99.90
47382;DHT22;33128;51.580;5.170;2022-07-23T08:24:30;19.60;99.90
47382;DHT22;33128;51.580;5.170;2022-07-23T08:26:56;19.80;99.90
47382;DHT22;33128;51.580;5.170;2022-07-23T08:29:21;20.10;99.90
47382;DHT22;33128;51.580;5.170;2022-07-23T08:31:47;19.90;99.90
47382;DHT22;33128;51.580;5.170;2022-07-23T08:34:12;19.50;99.90
47382;DHT22;33128;51.580;5.170;2022-07-23T08:36:38;19.70;99.90
47382;DHT22;33128;51.580;5.170;2022-07-23T08:39:03;19.90;99.90
47382;DHT22;33128;51.580;5.170;2022-07-23T08:41:29;20.10;99.90
47382;DHT22;33128;51.580;5.170;2022-07-23T08:43:54;20.00;99.90
47382;DHT22;33128;51.580;5.170;2022-07-23T08:46:20;20.00;99.90
47382;DHT22;33128;51.580;5.170;2022-07-23T08:48:47;20.00;99.90
47382;DHT22;33128;51.580;5.170;2022-07-23T08:51:13;20.00;99.90
47382;DHT22;33128;51.580;5.170;2022-07-23T08:53:42;20.40;99.90
47382;DHT22;33128;51.580;5.170;2022-07-23T08:56:08;20.60;99.90
47382;DHT22;33128;51.580;5.170;2022-07-23T08:58:33;20.80;99.90
47382;DHT22;33128;51.580;5.170;2022-07-23T09:00:59;21.10;99.90
47382;DHT22;33128;51.580;5.170;2022-07-23T09:03:28;21.00;99.90
47382;DHT22;33128;51.580;5.170;2022-07-23T09:05:54;21.00;99.90
47382;DHT22;33128;51.580;5.170;2022-07-23T09:15:53;20.90;99.90
47382;DHT22;33128;51.580;5.170;2022-07-23T09:18:28;20.90;99.90
47382;DHT22;33128;51.580;5.170;2022-07-23T09:21:04;20.80;99.90
47382;DHT22;33128;51.580;5.170;2022-07-23T09:23:40;20.90;99.90
47382;DHT22;33128;51.580;5.170;2022-07-23T09:28:54;21.10;99.90
47382;DHT22;33128;51.580;5.170;2022-07-23T09:31:20;21.20;99.90
47382;DHT22;33128;51.580;5.170;2022-07-23T09:33:48;21.20;99.90
47382;DHT22;33128;51.580;5.170;2022-07-23T09:36:14;21.40;99.90
47382;DHT22;33128;51.580;5.170;2022-07-23T09:38:49;21.60;99.90
47382;DHT22;33128;51.580;5.170;2022-07-23T09:41:15;21.50;99.90
47382;DHT22;33128;51.580;5.170;2022-07-23T09:43:41;21.50;99.90
47382;DHT22;33128;51.580;5.170;2022-07-23T09:46:23;21.60;99.90
47382;DHT22;33128;51.580;5.170;2022-07-23T09:48:49;21.70;99.90
47382;DHT22;33128;51.580;5.170;2022-07-23T09:51:17;21.90;99.90
47382;DHT22;33128;51.580;5.170;2022-07-23T09:53:46;22.00;99.90
47382;DHT22;33128;51.580;5.170;2022-07-23T09:56:11;21.80;99.90
47382;DHT22;33128;51.580;5.170;2022-07-23T09:58:39;22.10;99.90
47382;DHT22;33128;51.580;5.170;2022-07-23T10:01:09;22.30;99.90
47382;DHT22;33128;51.580;5.170;2022-07-23T10:03:35;22.40;99.90
47382;DHT22;33128;51.580;5.170;2022-07-23T10:06:01;22.50;99.90
47382;DHT22;33128;51.580;5.170;2022-07-23T10:08:26;22.60;99.90
47382;DHT22;33128;51.580;5.170;2022-07-23T10:10:52;22.50;99.90
47382;DHT22;33128;51.580;5.170;2022-07-23T10:13:18;22.30;99.90
47382;DHT22;33128;51.580;5.170;2022-07-23T10:15:44;22.20;99.90
47382;DHT22;33128;51.580;5.170;2022-07-23T10:18:09;22.50;99.90
47382;DHT22;33128;51.580;5.170;2022-07-23T10:20:35;22.70;99.90
47382;DHT22;33128;51.580;5.170;2022-07-23T10:25:59;22.70;99.90
47382;DHT22;33128;51.580;5.170;2022-07-23T10:28:41;22.80;99.90
47382;DHT22;33128;51.580;5.170;2022-07-23T10:34:07;22.30;99.90
47382;DHT22;33128;51.580;5.170;2022-07-23T10:36:42;22.70;99.90
47382;DHT22;33128;51.580;5.170;2022-07-23T10:39:24;23.00;99.90
47382;DHT22;33128;51.580;5.170;2022-07-23T10:41:50;23.00;99.90
47382;DHT22;33128;51.580;5.170;2022-07-23T10:44:17;23.40;99.90
47382;DHT22;33128;51.580;5.170;2022-07-23T10:46:56;23.60;99.90
47382;DHT22;33128;51.580;5.170;2022-07-23T10:49:34;23.90;99.90
47382;DHT22;33128;51.580;5.170;2022-07-23T10:54:40;23.50;99.90
47382;DHT22;33128;51.580;5.170;2022-07-23T10:59:43;22.70;99.90
47382;DHT22;33128;51.580;5.170;2022-07-23T11:02:20;23.30;99.90
47382;DHT22;33128;51.580;5.170;2022-07-23T11:04:49;23.80;99.90
47382;DHT22;33128;51.580;5.170;2022-07-23T11:07:15;24.20;99.90
47382;DHT22;33128;51.580;5.170;2022-07-23T11:09:41;24.50;99.90
47382;DHT22;33128;51.580;5.170;2022-07-23T11:15:13;24.30;99.90
47382;DHT22;33128;51.580;5.170;2022-07-23T11:22:35;28.30;99.90
47382;DHT22;33128;51.580;5.170;2022-07-23T11:25:00;26.40;99.90
47382;DHT22;33128;51.580;5.170;2022-07-23T11:27:39;25.00;99.90
47382;DHT22;33128;51.580;5.170;2022-07-23T11:30:05;26.60;99.90
47382;DHT22;33128;51.580;5.170;2022-07-23T11:32:33;29.60;99.50
47382;DHT22;33128;51.580;5.170;2022-07-23T11:35:00;30.50;97.00
47382;DHT22;33128;51.580;5.170;2022-07-23T11:39:57;31.30;93.00
47382;DHT22;33128;51.580;5.170;2022-07-23T11:42:23;31.50;92.60
47382;DHT22;33128;51.580;5.170;2022-07-23T11:44:49;33.00;91.00
47382;DHT22;33128;51.580;5.170;2022-07-23T11:47:20;31.60;89.00
47382;DHT22;33128;51.580;5.170;2022-07-23T11:49:56;30.70;89.70
47382;DHT22;33128;51.580;5.170;2022-07-23T11:52:22;29.40;90.20
47382;DHT22;33128;51.580;5.170;2022-07-23T11:54:49;27.10;92.50
47382;DHT22;33128;51.580;5.170;2022-07-23T11:57:14;28.40;91.30
47382;DHT22;33128;51.580;5.170;2022-07-23T11:59:40;31.10;90.40
47382;DHT22;33128;51.580;5.170;2022-07-23T12:02:06;33.00;88.30
47382;DHT22;33128;51.580;5.170;2022-07-23T12:04:38;31.10;86.60
47382;DHT22;33128;51.580;5.170;2022-07-23T12:07:04;31.50;85.50
47382;DHT22;33128;51.580;5.170;2022-07-23T12:09:30;31.30;87.60
47382;DHT22;33128;51.580;5.170;2022-07-23T12:11:56;30.30;87.70
47382;DHT22;33128;51.580;5.170;2022-07-23T12:14:22;31.40;85.20
47382;DHT22;33128;51.580;5.170;2022-07-23T12:16:47;31.70;84.40
47382;DHT22;33128;51.580;5.170;2022-07-23T12:19:31;33.40;82.80
47382;DHT22;33128;51.580;5.170;2022-07-23T12:21:57;35.10;81.20
47382;DHT22;33128;51.580;5.170;2022-07-23T12:24:22;37.30;77.80
47382;DHT22;33128;51.580;5.170;2022-07-23T12:29:35;30.80;79.70
47382;DHT22;33128;51.580;5.170;2022-07-23T12:32:01;27.70;87.30
47382;DHT22;33128;51.580;5.170;2022-07-23T12:34:27;26.10;90.60
47382;DHT22;33128;51.580;5.170;2022-07-23T12:36:52;25.30;92.20
47382;DHT22;33128;51.580;5.170;2022-07-23T12:39:31;24.90;93.20
47382;DHT22;33128;51.580;5.170;2022-07-23T12:41:56;25.50;93.40
47382;DHT22;33128;51.580;5.170;2022-07-23T12:44:22;25.10;94.30
47382;DHT22;33128;51.580;5.170;2022-07-23T12:46:51;24.80;94.30
47382;DHT22;33128;51.580;5.170;2022-07-23T12:49:27;24.70;94.70
47382;DHT22;33128;51.580;5.170;2022-07-23T12:51:52;24.50;95.30
47382;DHT22;33128;51.580;5.170;2022-07-23T12:54:18;24.50;95.70
47382;DHT22;33128;51.580;5.170;2022-07-23T12:56:51;25.00;95.70
47382;DHT22;33128;51.580;5.170;2022-07-23T12:59:17;25.70;95.20
47382;DHT22;33128;51.580;5.170;2022-07-23T13:01:45;26.00;94.80
47382;DHT22;33128;51.580;5.170;2022-07-23T13:04:15;25.50;95.10
47382;DHT22;33128;51.580;5.170;2022-07-23T13:06:42;25.80;95.40
47382;DHT22;33128;51.580;5.170;2022-07-23T13:09:09;26.20;94.90
47382;DHT22;33128;51.580;5.170;2022-07-23T13:11:34;26.20;94.60
47382;DHT22;33128;51.580;5.170;2022-07-23T13:14:00;25.60;95.70
47382;DHT22;33128;51.580;5.170;2022-07-23T13:16:27;25.40;96.00
47382;DHT22;33128;51.580;5.170;2022-07-23T13:18:53;25.30;96.20
47382;DHT22;33128;51.580;5.170;2022-07-23T13:21:18;25.30;96.20
47382;DHT22;33128;51.580;5.170;2022-07-23T13:23:44;25.80;95.80
47382;DHT22;33128;51.580;5.170;2022-07-23T13:26:09;26.00;95.60
47382;DHT22;33128;51.580;5.170;2022-07-23T13:28:35;26.30;95.20
47382;DHT22;33128;51.580;5.170;2022-07-23T13:31:00;26.40;95.10
47382;DHT22;33128;51.580;5.170;2022-07-23T13:33:26;26.40;95.20
47382;DHT22;33128;51.580;5.170;2022-07-23T13:35:51;26.40;95.30
47382;DHT22;33128;51.580;5.170;2022-07-23T13:38:18;26.40;95.30
47382;DHT22;33128;51.580;5.170;2022-07-23T13:40:44;26.50;96.90
47382;DHT22;33128;51.580;5.170;2022-07-23T13:43:10;26.60;95.30
47382;DHT22;33128;51.580;5.170;2022-07-23T13:45:36;26.70;95.00
47382;DHT22;33128;51.580;5.170;2022-07-23T13:48:02;26.80;95.00
47382;DHT22;33128;51.580;5.170;2022-07-23T13:50:28;26.80;95.40
47382;DHT22;33128;51.580;5.170;2022-07-23T13:52:53;26.40;95.20
47382;DHT22;33128;51.580;5.170;2022-07-23T13:55:19;26.40;95.40
47382;DHT22;33128;51.580;5.170;2022-07-23T13:57:44;26.60;94.70
47382;DHT22;33128;51.580;5.170;2022-07-23T14:00:10;26.50;94.50
47382;DHT22;33128;51.580;5.170;2022-07-23T14:02:37;26.30;95.00
47382;DHT22;33128;51.580;5.170;2022-07-23T14:05:04;26.30;94.90
47382;DHT22;33128;51.580;5.170;2022-07-23T14:07:30;26.50;94.80
47382;DHT22;33128;51.580;5.170;2022-07-23T14:09:55;26.60;94.80
47382;DHT22;33128;51.580;5.170;2022-07-23T14:12:21;26.30;95.10
47382;DHT22;33128;51.580;5.170;2022-07-23T14:14:46;26.10;95.00
47382;DHT22;33128;51.580;5.170;2022-07-23T14:17:12;25.90;95.30
47382;DHT22;33128;51.580;5.170;2022-07-23T14:19:38;25.70;95.70
47382;DHT22;33128;51.580;5.170;2022-07-23T14:22:03;25.60;95.80
47382;DHT22;33128;51.580;5.170;2022-07-23T14:24:29;25.50;96.00
47382;DHT22;33128;51.580;5.170;2022-07-23T14:26:54;25.60;96.10
47382;DHT22;33128;51.580;5.170;2022-07-23T14:29:20;25.50;96.10
47382;DHT22;33128;51.580;5.170;2022-07-23T14:31:45;25.50;96.30
47382;DHT22;33128;51.580;5.170;2022-07-23T14:34:10;25.50;96.30
47382;DHT22;33128;51.580;5.170;2022-07-23T14:36:37;25.40;96.20
47382;DHT22;33128;51.580;5.170;2022-07-23T14:39:03;25.30;96.20
47382;DHT22;33128;51.580;5.170;2022-07-23T14:41:28;25.30;96.40
47382;DHT22;33128;51.580;5.170;2022-07-23T14:43:54;25.30;96.30
47382;DHT22;33128;51.580;5.170;2022-07-23T14:46:19;25.30;96.30
47382;DHT22;33128;51.580;5.170;2022-07-23T14:48:45;25.30;96.70
47382;DHT22;33128;51.580;5.170;2022-07-23T14:51:10;25.20;96.90
47382;DHT22;33128;51.580;5.170;2022-07-23T14:53:36;25.20;96.80
47382;DHT22;33128;51.580;5.170;2022-07-23T14:56:01;25.30;96.70
47382;DHT22;33128;51.580;5.170;2022-07-23T14:58:28;25.20;96.80
47382;DHT22;33128;51.580;5.170;2022-07-23T15:00:54;25.20;98.60
47382;DHT22;33128;51.580;5.170;2022-07-23T15:03:19;25.20;96.90
47382;DHT22;33128;51.580;5.170;2022-07-23T15:05:45;25.20;96.90
47382;DHT22;33128;51.580;5.170;2022-07-23T15:08:10;25.10;96.90
47382;DHT22;33128;51.580;5.170;2022-07-23T15:10:36;25.00;96.80
47382;DHT22;33128;51.580;5.170;2022-07-23T15:13:01;25.00;97.10
47382;DHT22;33128;51.580;5.170;2022-07-23T15:15:27;25.10;98.20
47382;DHT22;33128;51.580;5.170;2022-07-23T15:17:52;25.10;97.40
47382;DHT22;33128;51.580;5.170;2022-07-23T15:20:18;25.10;97.40
47382;DHT22;33128;51.580;5.170;2022-07-23T15:22:43;25.10;97.20
47382;DHT22;33128;51.580;5.170;2022-07-23T15:25:10;25.00;96.90
47382;DHT22;33128;51.580;5.170;2022-07-23T15:27:35;25.10;96.70
47382;DHT22;33128;51.580;5.170;2022-07-23T15:30:01;25.20;96.70
47382;DHT22;33128;51.580;5.170;2022-07-23T15:32:26;25.30;96.90
47382;DHT22;33128;51.580;5.170;2022-07-23T15:34:55;25.30;96.60
47382;DHT22;33128;51.580;5.170;2022-07-23T15:37:20;25.20;96.70
47382;DHT22;33128;51.580;5.170;2022-07-23T15:39:48;25.20;96.70
47382;DHT22;33128;51.580;5.170;2022-07-23T15:42:14;25.20;96.90
47382;DHT22;33128;51.580;5.170;2022-07-23T15:44:39;25.10;96.60
47382;DHT22;33128;51.580;5.170;2022-07-23T15:47:05;25.10;96.70
47382;DHT22;33128;51.580;5.170;2022-07-23T15:49:35;25.10;96.80
47382;DHT22;33128;51.580;5.170;2022-07-23T15:52:01;25.10;97.10
47382;DHT22;33128;51.580;5.170;2022-07-23T15:54:26;25.10;96.90
47382;DHT22;33128;51.580;5.170;2022-07-23T15:56:52;25.00;96.90
47382;DHT22;33128;51.580;5.170;2022-07-23T15:59:18;25.10;97.10